Time;durP1;ratioP1;P1;durP2;ratioP2;P2;SDS_P1;SDS_P2;PMS_P1;PMS_P2;Temp;Humidity;BMP_temperature;BMP_pressure;BME280_temperature;BME280_humidity;BME280_pressure;Samples;Min_cycle;Max_cycle;Signal;HPM_P1;HPM_P2
2021/06/01 00:01:18;;;;;;;0.90;0.90;;;;;;;;;;5070646;28;20210;-64
2021/06/01 00:03:44;;;;;;;1.02;0.93;;;;;;;;;;5073602;28;20167;-64
2021/06/01 00:06:10;;;;;;;1.23;0.90;;;;;;;;;;5074943;28;20172;-64
2021/06/01 00:08:36;;;;;;;1.20;0.95;;;;;;;;;;5074343;28;20203;-63
2021/06/01 00:11:03;;;;;;;1.30;0.85;;;;;;;;;;5074647;28;20187;-65
2021/06/01 00:13:29;;;;;;;1.08;0.90;;;;;;;;;;5074850;28;20182;-64
2021/06/01 00:15:55;;;;;;;0.65;0.65;;;;;;;;;;5074558;28;20199;-63
2021/06/01 00:18:21;;;;;;;1.27;1.00;;;;;;;;;;5074941;28;20183;-65
2021/06/01 00:20:47;;;;;;;1.07;0.87;;;;;;;;;;5074063;28;20260;-63
2021/06/01 00:23:13;;;;;;;1.05;0.95;;;;;;;;;;5074010;28;20972;-63
2021/06/01 00:25:39;;;;;;;1.08;1.05;;;;;;;;;;5074453;28;20175;-64
2021/06/01 00:28:05;;;;;;;1.67;1.58;;;;;;;;;;5056561;28;20221;-65
2021/06/01 00:30:31;;;;;;;2.05;1.15;;;;;;;;;;5073722;28;20214;-63
2021/06/01 00:32:57;;;;;;;0.80;0.80;;;;;;;;;;5074530;28;20198;-63
2021/06/01 00:35:23;;;;;;;1.13;0.93;;;;;;;;;;5074261;28;20194;-63
2021/06/01 00:37:49;;;;;;;0.52;0.52;;;;;;;;;;5074515;28;20487;-64
2021/06/01 00:40:15;;;;;;;1.53;1.30;;;;;;;;;;5074214;28;20202;-64
2021/06/01 00:42:41;;;;;;;1.43;1.23;;;;;;;;;;5073970;28;20445;-64
2021/06/01 00:45:07;;;;;;;1.00;1.00;;;;;;;;;;5074414;28;20935;-63
2021/06/01 00:47:33;;;;;;;1.48;1.10;;;;;;;;;;5073952;28;20180;-64
2021/06/01 00:49:59;;;;;;;1.43;0.90;;;;;;;;;;5073657;28;20172;-65
2021/06/01 00:52:25;;;;;;;0.90;0.90;;;;;;;;;;5056059;28;20963;-63
2021/06/01 00:54:52;;;;;;;1.45;1.10;;;;;;;;;;5074166;28;20167;-64
2021/06/01 00:57:18;;;;;;;1.30;0.82;;;;;;;;;;5073853;28;20210;-64
2021/06/01 00:59:43;;;;;;;1.00;0.90;;;;;;;;;;5073588;28;20229;-64
2021/06/01 01:02:10;;;;;;;1.10;1.10;;;;;;;;;;5073295;28;20473;-64
2021/06/01 01:04:36;;;;;;;3.28;1.58;;;;;;;;;;5073975;28;20893;-64
2021/06/01 01:07:15;;;;;;;1.42;1.25;;;;;;;;;;5073599;28;20585;-64
2021/06/01 01:40:17;;;;;;;2.17;1.92;;;;;;;;;;5072332;28;20234;-65
2021/06/01 01:42:45;;;;;;;1.00;1.00;;;;;;;;;;5073183;28;20191;-64
2021/06/01 01:45:24;;;;;;;0.80;0.80;;;;;;;;;;5073253;28;20182;-64
2021/06/01 01:50:20;;;;;;;0.73;0.70;;;;;;;;;;5072462;28;20742;-63
2021/06/01 01:52:46;;;;;;;1.95;1.40;;;;;;;;;;5072585;28;20202;-64
2021/06/01 01:55:12;;;;;;;0.73;0.73;;;;;;;;;;5072787;28;20175;-64
2021/06/01 01:57:42;;;;;;;2.05;1.23;;;;;;;;;;5072882;28;20179;-64
2021/06/01 02:00:12;;;;;;;0.95;0.90;;;;;;;;;;5072141;28;20206;-64
2021/06/01 02:02:38;;;;;;;1.20;1.10;;;;;;;;;;5072062;28;20608;-65
2021/06/01 02:05:05;;;;;;;2.97;1.98;;;;;;;;;;5072431;28;20572;-64
2021/06/01 02:07:32;;;;;;;1.30;1.20;;;;;;;;;;5072670;28;20186;-63
2021/06/01 02:09:59;;;;;;;1.67;1.58;;;;;;;;;;5072089;28;20597;-63
2021/06/01 02:12:25;;;;;;;1.15;0.80;;;;;;;;;;5072151;28;20568;-63
2021/06/01 02:14:55;;;;;;;2.03;1.50;;;;;;;;;;5072543;28;20178;-63
2021/06/01 02:17:21;;;;;;;0.75;0.65;;;;;;;;;;5072187;28;20717;-63
2021/06/01 02:19:48;;;;;;;1.08;1.08;;;;;;;;;;5071832;28;20175;-63
2021/06/01 02:24:53;;;;;;;1.35;1.25;;;;;;;;;;5072062;28;20186;-63
2021/06/01 02:27:24;;;;;;;2.22;1.65;;;;;;;;;;5071565;28;20178;-63
2021/06/01 02:29:50;;;;;;;0.85;0.80;;;;;;;;;;5071830;28;20202;-63
2021/06/01 02:32:18;;;;;;;1.80;1.70;;;;;;;;;;5071646;28;20285;-63
2021/06/01 02:34:46;;;;;;;0.98;0.98;;;;;;;;;;5072087;28;20304;-63
2021/06/01 02:37:12;;;;;;;1.02;1.02;;;;;;;;;;5071776;28;20288;-63
2021/06/01 02:39:38;;;;;;;0.63;0.63;;;;;;;;;;5071136;28;20186;-64
2021/06/01 02:42:05;;;;;;;1.83;1.08;;;;;;;;;;5071912;28;20719;-63
2021/06/01 02:44:31;;;;;;;2.38;1.30;;;;;;;;;;5071560;28;20319;-63
2021/06/01 02:46:59;;;;;;;3.45;1.88;;;;;;;;;;5071852;28;20213;-63
2021/06/01 02:49:25;;;;;;;0.90;0.90;;;;;;;;;;5071711;28;20164;-63
2021/06/01 02:51:53;;;;;;;0.70;0.60;;;;;;;;;;5071057;28;20213;-63
2021/06/01 02:54:20;;;;;;;2.45;1.77;;;;;;;;;;5071553;28;20172;-63
2021/06/01 02:56:46;;;;;;;1.00;1.00;;;;;;;;;;5071774;28;20205;-63
2021/06/01 02:59:12;;;;;;;0.70;0.70;;;;;;;;;;5071347;28;20179;-63
2021/06/01 03:01:38;;;;;;;0.77;0.70;;;;;;;;;;5071272;28;20210;-63
2021/06/01 03:04:07;;;;;;;0.70;0.70;;;;;;;;;;5071726;28;20171;-63
2021/06/01 03:06:34;;;;;;;1.85;0.95;;;;;;;;;;5070937;28;20835;-63
2021/06/01 03:09:00;;;;;;;1.35;1.25;;;;;;;;;;5071218;28;20236;-63
2021/06/01 03:11:27;;;;;;;1.25;1.20;;;;;;;;;;5071303;28;20251;-63
2021/06/01 03:13:53;;;;;;;0.95;0.93;;;;;;;;;;5071335;28;20193;-63
2021/06/01 03:16:20;;;;;;;1.50;1.23;;;;;;;;;;5071331;28;20258;-63
2021/06/01 03:18:46;;;;;;;1.10;1.05;;;;;;;;;;5071286;28;20739;-63
2021/06/01 03:21:13;;;;;;;3.38;1.15;;;;;;;;;;5071115;28;20279;-63
2021/06/01 03:23:40;;;;;;;1.95;1.27;;;;;;;;;;5071510;28;20174;-63
2021/06/01 03:26:06;;;;;;;2.22;1.55;;;;;;;;;;5071206;28;20182;-63
2021/06/01 03:28:33;;;;;;;1.33;1.23;;;;;;;;;;5071197;28;20167;-63
2021/06/01 03:30:59;;;;;;;1.42;1.33;;;;;;;;;;5071090;28;20186;-63
2021/06/01 03:33:24;;;;;;;0.77;0.77;;;;;;;;;;5070984;28;20676;-63
2021/06/01 03:35:51;;;;;;;1.15;1.05;;;;;;;;;;5070972;28;20432;-63
2021/06/01 03:38:17;;;;;;;1.25;1.17;;;;;;;;;;5058549;28;20179;-63
2021/06/01 03:40:43;;;;;;;1.35;0.80;;;;;;;;;;5075191;28;20929;-63
2021/06/01 03:43:09;;;;;;;0.70;0.70;;;;;;;;;;5074965;28;20205;-63
2021/06/01 03:45:35;;;;;;;2.15;1.95;;;;;;;;;;5075411;28;20185;-63
2021/06/01 03:48:02;;;;;;;2.25;1.58;;;;;;;;;;5074916;28;20535;-63
2021/06/01 03:50:28;;;;;;;1.23;0.70;;;;;;;;;;5075100;28;20197;-63
2021/06/01 03:52:54;;;;;;;0.93;0.90;;;;;;;;;;5074656;28;20206;-63
2021/06/01 03:55:21;;;;;;;1.45;1.40;;;;;;;;;;5075191;28;20220;-63
2021/06/01 03:57:48;;;;;;;1.00;1.00;;;;;;;;;;5075090;28;20649;-63
2021/06/01 04:00:15;;;;;;;0.60;0.60;;;;;;;;;;5074287;28;20197;-63
2021/06/01 04:02:41;;;;;;;1.50;0.90;;;;;;;;;;5074506;28;20230;-63
2021/06/01 04:05:08;;;;;;;2.35;1.33;;;;;;;;;;5074808;28;20182;-63
2021/06/01 04:07:34;;;;;;;1.15;1.10;;;;;;;;;;5074394;28;20254;-63
2021/06/01 04:10:01;;;;;;;1.67;1.67;;;;;;;;;;5074446;28;20212;-63
2021/06/01 04:12:27;;;;;;;0.98;0.80;;;;;;;;;;5074538;28;20433;-63
2021/06/01 04:14:53;;;;;;;1.20;1.20;;;;;;;;;;5074796;28;20174;-63
2021/06/01 04:17:19;;;;;;;0.80;0.80;;;;;;;;;;5074308;28;20604;-63
2021/06/01 04:19:45;;;;;;;0.87;0.87;;;;;;;;;;5074169;28;20425;-63
2021/06/01 04:22:11;;;;;;;1.20;1.10;;;;;;;;;;5074280;28;20899;-63
2021/06/01 04:24:37;;;;;;;1.13;1.10;;;;;;;;;;5074358;28;20257;-63
2021/06/01 04:27:03;;;;;;;2.17;1.60;;;;;;;;;;5074544;28;20408;-60
2021/06/01 04:29:29;;;;;;;2.60;0.93;;;;;;;;;;5073754;28;20787;-63
2021/06/01 04:31:55;;;;;;;1.00;1.00;;;;;;;;;;5073540;28;20210;-63
2021/06/01 04:34:21;;;;;;;1.60;1.02;;;;;;;;;;5073776;28;20629;-63
2021/06/01 04:36:48;;;;;;;1.38;1.27;;;;;;;;;;5068176;28;20551;-63
2021/06/01 04:39:14;;;;;;;1.70;1.40;;;;;;;;;;5054251;28;20532;-63
2021/06/01 04:41:40;;;;;;;1.15;1.02;;;;;;;;;;5054169;28;20261;-63
2021/06/01 04:44:06;;;;;;;1.58;1.02;;;;;;;;;;5054198;28;20180;-63
2021/06/01 04:46:33;;;;;;;0.82;0.80;;;;;;;;;;5054010;28;20244;-63
2021/06/01 04:49:00;;;;;;;1.70;1.13;;;;;;;;;;5053580;28;20255;-63
2021/06/01 04:51:26;;;;;;;0.90;0.90;;;;;;;;;;5053965;28;20211;-63
2021/06/01 04:53:55;;;;;;;1.10;1.08;;;;;;;;;;5053956;28;20171;-63
2021/06/01 04:56:22;;;;;;;1.50;1.40;;;;;;;;;;5054067;28;20176;-63
2021/06/01 04:58:48;;;;;;;1.65;1.55;;;;;;;;;;5053628;28;20224;-63
2021/06/01 05:03:47;;;;;;;2.50;1.67;;;;;;;;;;5051222;28;20308;-65
2021/06/01 05:06:13;;;;;;;0.93;0.93;;;;;;;;;;5053808;28;20183;-65
2021/06/01 05:08:39;;;;;;;1.95;1.80;;;;;;;;;;5053591;28;20171;-65
2021/06/01 05:11:05;;;;;;;0.98;0.90;;;;;;;;;;5035875;28;20178;-67
2021/06/01 05:13:31;;;;;;;1.15;1.00;;;;;;;;;;5035370;28;20220;-66
2021/06/01 05:15:58;;;;;;;1.33;1.25;;;;;;;;;;5053601;28;20596;-66
2021/06/01 05:18:24;;;;;;;1.02;1.02;;;;;;;;;;5051333;28;20186;-66
2021/06/01 05:20:50;;;;;;;0.85;0.85;;;;;;;;;;5052026;28;20586;-64
2021/06/01 05:23:16;;;;;;;1.67;1.58;;;;;;;;;;5053226;28;20742;-64
2021/06/01 05:25:44;;;;;;;1.55;1.45;;;;;;;;;;5052224;28;20785;-64
2021/06/01 05:28:10;;;;;;;1.20;1.10;;;;;;;;;;5052954;28;20641;-64
2021/06/01 05:35:29;;;;;;;2.78;1.83;;;;;;;;;;5033590;28;20501;-65
2021/06/01 05:37:55;;;;;;;0.70;0.70;;;;;;;;;;5044275;28;20649;-66
2021/06/01 05:40:22;;;;;;;2.13;2.03;;;;;;;;;;5052635;28;20191;-66
2021/06/01 05:42:48;;;;;;;2.72;2.25;;;;;;;;;;5052787;28;20195;-65
2021/06/01 05:45:14;;;;;;;4.35;1.35;;;;;;;;;;5052846;28;20176;-67
2021/06/01 05:47:40;;;;;;;1.50;1.40;;;;;;;;;;5053034;28;20226;-64
2021/06/01 05:50:06;;;;;;;1.20;1.20;;;;;;;;;;5052562;28;20172;-66
2021/06/01 05:52:36;;;;;;;1.92;1.83;;;;;;;;;;5052745;28;20445;-66
2021/06/01 05:55:04;;;;;;;1.25;1.00;;;;;;;;;;5052984;28;20160;-66
2021/06/01 05:57:30;;;;;;;2.03;1.85;;;;;;;;;;5038669;28;20176;-66
2021/06/01 05:59:56;;;;;;;2.15;1.40;;;;;;;;;;5032495;28;20204;-67
2021/06/01 06:02:22;;;;;;;0.98;0.95;;;;;;;;;;5050340;28;20642;-66
2021/06/01 06:04:48;;;;;;;2.47;2.28;;;;;;;;;;5052682;28;20218;-66
2021/06/01 06:07:14;;;;;;;0.97;0.97;;;;;;;;;;5052637;28;20168;-65
2021/06/01 06:09:40;;;;;;;1.27;1.00;;;;;;;;;;5052214;28;20801;-66
2021/06/01 06:12:07;;;;;;;1.38;1.25;;;;;;;;;;5051880;28;20474;-65
2021/06/01 06:14:33;;;;;;;1.67;1.58;;;;;;;;;;5052148;28;20222;-66
2021/06/01 06:17:07;;;;;;;3.22;1.35;;;;;;;;;;5052115;28;20180;-66
2021/06/01 06:19:40;;;;;;;1.58;1.13;;;;;;;;;;5052347;28;20178;-66
2021/06/01 06:22:06;;;;;;;2.22;2.03;;;;;;;;;;5052464;28;20207;-66
2021/06/01 06:24:32;;;;;;;3.08;1.50;;;;;;;;;;5052331;28;20199;-65
2021/06/01 06:26:58;;;;;;;0.93;0.93;;;;;;;;;;5051666;28;20606;-66
2021/06/01 06:29:24;;;;;;;3.30;1.63;;;;;;;;;;5052164;28;20411;-67
2021/06/01 06:31:50;;;;;;;1.23;1.20;;;;;;;;;;5051829;28;20450;-66
2021/06/01 06:34:16;;;;;;;1.27;1.17;;;;;;;;;;5051574;28;20427;-66
2021/06/01 06:36:42;;;;;;;1.90;1.77;;;;;;;;;;5051383;28;20896;-67
2021/06/01 06:39:09;;;;;;;1.23;1.20;;;;;;;;;;5051258;28;20431;-67
2021/06/01 06:41:35;;;;;;;3.13;1.00;;;;;;;;;;5051659;28;20487;-66
2021/06/01 06:44:02;;;;;;;1.52;1.20;;;;;;;;;;5051873;28;20207;-66
2021/06/01 06:46:31;;;;;;;2.28;2.03;;;;;;;;;;5051901;28;20164;-65
2021/06/01 06:48:58;;;;;;;1.13;1.08;;;;;;;;;;5051489;28;20176;-65
2021/06/01 06:51:26;;;;;;;2.15;1.52;;;;;;;;;;5050487;28;20238;-66
2021/06/01 06:53:53;;;;;;;1.30;1.20;;;;;;;;;;5051701;28;20543;-65
2021/06/01 06:56:20;;;;;;;1.60;1.00;;;;;;;;;;5051870;28;20180;-65
2021/06/01 06:58:47;;;;;;;1.93;1.27;;;;;;;;;;5051454;28;20168;-66
2021/06/01 07:01:13;;;;;;;2.27;1.40;;;;;;;;;;5051711;28;20857;-65
2021/06/01 07:03:39;;;;;;;0.93;0.93;;;;;;;;;;5051534;28;20434;-65
2021/06/01 07:06:05;;;;;;;2.73;1.40;;;;;;;;;;5051460;28;20416;-62
2021/06/01 07:08:31;;;;;;;1.80;1.43;;;;;;;;;;5051280;28;20388;-65
2021/06/01 07:10:57;;;;;;;2.03;1.47;;;;;;;;;;5051561;28;20468;-65
2021/06/01 07:13:26;;;;;;;2.50;1.37;;;;;;;;;;5051300;28;20434;-65
2021/06/01 07:15:53;;;;;;;1.30;1.20;;;;;;;;;;5051608;28;20430;-65
2021/06/01 07:18:19;;;;;;;3.00;2.00;;;;;;;;;;5051499;28;20437;-65
2021/06/01 07:20:45;;;;;;;1.00;1.00;;;;;;;;;;5051138;28;20961;-64
2021/06/01 07:23:11;;;;;;;1.43;1.13;;;;;;;;;;5051352;28;20437;-66
2021/06/01 07:25:37;;;;;;;1.73;1.30;;;;;;;;;;5051462;28;20442;-66
2021/06/01 07:28:04;;;;;;;1.30;1.00;;;;;;;;;;5051329;28;20405;-67
2021/06/01 07:30:30;;;;;;;1.03;1.03;;;;;;;;;;5063222;28;20392;-66
2021/06/01 07:32:58;;;;;;;1.57;1.30;;;;;;;;;;5054510;28;20439;-65
2021/06/01 07:35:24;;;;;;;1.40;1.30;;;;;;;;;;5051012;28;20821;-65
2021/06/01 07:37:50;;;;;;;3.00;1.20;;;;;;;;;;5050889;28;20813;-65
2021/06/01 07:40:17;;;;;;;1.57;1.00;;;;;;;;;;5050726;28;20410;-66
2021/06/01 07:42:43;;;;;;;1.00;1.00;;;;;;;;;;5050958;28;20497;-66
2021/06/01 07:45:09;;;;;;;1.50;1.27;;;;;;;;;;5051065;28;20413;-66
2021/06/01 07:47:35;;;;;;;2.60;1.63;;;;;;;;;;5050959;28;20407;-66
2021/06/01 07:50:01;;;;;;;1.73;1.20;;;;;;;;;;5050648;28;20447;-65
2021/06/01 07:52:27;;;;;;;1.00;1.00;;;;;;;;;;5050723;28;20483;-65
2021/06/01 07:54:54;;;;;;;0.97;0.97;;;;;;;;;;5050893;28;20410;-66
2021/06/01 07:57:20;;;;;;;1.53;0.90;;;;;;;;;;5050932;28;20506;-66
2021/06/01 07:59:46;;;;;;;1.40;1.30;;;;;;;;;;5050922;28;20450;-67
2021/06/01 08:02:15;;;;;;;1.60;1.50;;;;;;;;;;5050974;28;20474;-66
2021/06/01 08:04:41;;;;;;;2.00;1.77;;;;;;;;;;5050854;28;20897;-66
2021/06/01 08:07:08;;;;;;;1.53;1.43;;;;;;;;;;5050660;28;20407;-67
2021/06/01 08:09:35;;;;;;;1.30;1.17;;;;;;;;;;5050634;28;20489;-67
2021/06/01 08:12:04;;;;;;;1.07;1.07;;;;;;;;;;5050710;28;20483;-65
2021/06/01 08:14:31;;;;;;;2.57;1.47;;;;;;;;;;5050791;28;20414;-66
2021/06/01 08:16:58;;;;;;;1.27;1.17;;;;;;;;;;5048709;28;20426;-65
2021/06/01 08:19:31;;;;;;;1.23;1.23;;;;;;;;;;5050172;28;20421;-66
2021/06/01 08:24:23;;;;;;;1.73;1.63;;;;;;;;;;5051913;28;20414;-65
2021/06/01 08:26:49;;;;;;;2.60;2.23;;;;;;;;;;5054107;28;20751;-66
2021/06/01 08:29:15;;;;;;;1.30;1.23;;;;;;;;;;5053966;28;20500;-65
2021/06/01 08:31:42;;;;;;;2.37;1.33;;;;;;;;;;5054113;28;20446;-66
2021/06/01 08:34:08;;;;;;;1.80;1.70;;;;;;;;;;5053975;28;20415;-66
2021/06/01 08:36:34;;;;;;;1.27;0.77;;;;;;;;;;5053860;28;20438;-67
2021/06/01 08:39:00;;;;;;;1.53;1.13;;;;;;;;;;5053890;28;20406;-67
2021/06/01 08:41:26;;;;;;;2.40;1.30;;;;;;;;;;5053828;28;20461;-66
2021/06/01 08:43:54;;;;;;;1.40;1.30;;;;;;;;;;5053947;28;20394;-63
2021/06/01 08:46:24;;;;;;;1.23;1.20;;;;;;;;;;5054049;28;20385;-67
2021/06/01 08:48:51;;;;;;;1.13;1.00;;;;;;;;;;5053889;28;20495;-68
2021/06/01 08:51:20;;;;;;;1.20;1.10;;;;;;;;;;5053860;28;20413;-67
2021/06/01 08:53:47;;;;;;;1.30;1.20;;;;;;;;;;5053711;28;20893;-67
2021/06/01 08:56:13;;;;;;;1.30;1.20;;;;;;;;;;5053582;28;20424;-65
2021/06/01 08:58:39;;;;;;;1.50;1.40;;;;;;;;;;5053536;28;20908;-66
2021/06/01 09:01:05;;;;;;;1.67;1.40;;;;;;;;;;5053435;28;20496;-67
2021/06/01 09:03:33;;;;;;;1.00;1.00;;;;;;;;;;5053379;28;20469;-67
2021/06/01 09:06:06;;;;;;;127.13;31.20;;;;;;;;;;5053566;28;20449;-67
2021/06/01 09:08:41;;;;;;;2.10;1.33;;;;;;;;;;5053081;28;20437;-66
2021/06/01 09:11:27;;;;;;;1.77;1.67;;;;;;;;;;5053577;28;20505;-67
2021/06/01 09:22:28;;;;;;;1.73;1.30;;;;;;;;;;5053067;28;20467;-67
2021/06/01 09:25:00;;;;;;;1.73;1.13;;;;;;;;;;5053077;28;20441;-67
2021/06/01 09:27:29;;;;;;;2.03;1.50;;;;;;;;;;5053069;28;20465;-66
2021/06/01 09:29:55;;;;;;;1.30;1.20;;;;;;;;;;5060252;28;20908;-66
2021/06/01 09:32:22;;;;;;;1.73;1.13;;;;;;;;;;5072955;28;20433;-66
2021/06/01 09:34:49;;;;;;;1.43;1.33;;;;;;;;;;5072609;28;20433;-67
2021/06/01 09:37:27;;;;;;;1.90;1.23;;;;;;;;;;5072170;28;20493;-66
2021/06/01 09:40:08;;;;;;;1.47;1.37;;;;;;;;;;5072276;28;20494;-65
2021/06/01 09:42:35;;;;;;;1.50;1.40;;;;;;;;;;5072601;28;20465;-67
2021/06/01 09:45:05;;;;;;;1.50;1.40;;;;;;;;;;5072719;28;20403;-66
2021/06/01 09:47:51;;;;;;;1.20;1.10;;;;;;;;;;5072736;28;20415;-66
2021/06/01 09:52:53;;;;;;;3.60;1.27;;;;;;;;;;5072534;28;20947;-66
2021/06/01 09:55:38;;;;;;;1.10;1.00;;;;;;;;;;5072784;28;20399;-67
2021/06/01 09:58:06;;;;;;;1.20;1.10;;;;;;;;;;5072538;28;20414;-66
2021/06/01 10:00:32;;;;;;;1.20;1.10;;;;;;;;;;5072417;28;20406;-66
2021/06/01 10:03:03;;;;;;;5.03;1.37;;;;;;;;;;5072083;28;20441;-66
2021/06/01 10:05:33;;;;;;;1.20;1.00;;;;;;;;;;5072647;28;20443;-65
2021/06/01 10:08:09;;;;;;;1.10;1.03;;;;;;;;;;5072575;28;20409;-65
2021/06/01 10:10:35;;;;;;;1.50;1.40;;;;;;;;;;5080619;28;20427;-65
2021/06/01 10:13:11;;;;;;;1.43;1.33;;;;;;;;;;5092917;28;20431;-66
2021/06/01 10:15:38;;;;;;;1.30;1.10;;;;;;;;;;5068633;28;20436;-66
2021/06/01 10:18:08;;;;;;;1.57;1.47;;;;;;;;;;5052429;28;20423;-65
2021/06/01 10:20:35;;;;;;;1.40;1.30;;;;;;;;;;5052923;28;20441;-64
2021/06/01 10:23:02;;;;;;;1.10;1.00;;;;;;;;;;5052291;28;20432;-66
2021/06/01 10:25:28;;;;;;;1.47;1.37;;;;;;;;;;5052246;28;20430;-64
2021/06/01 10:27:59;;;;;;;2.00;1.80;;;;;;;;;;5052042;28;20402;-65
2021/06/01 10:30:25;;;;;;;2.00;1.47;;;;;;;;;;5051794;28;20857;-65
2021/06/01 10:32:52;;;;;;;1.53;1.43;;;;;;;;;;5051806;28;20449;-65
2021/06/01 10:35:21;;;;;;;1.50;1.37;;;;;;;;;;5051901;28;20465;-65
2021/06/01 10:49:16;;;;;;;1.33;1.23;;;;;;;;;;5051517;28;20468;-64
2021/06/01 10:51:50;;;;;;;1.43;1.33;;;;;;;;;;5049934;28;20421;-66
2021/06/01 10:54:36;;;;;;;1.60;1.00;;;;;;;;;;5051415;28;20398;-65
2021/06/01 10:57:02;;;;;;;1.90;1.43;;;;;;;;;;5051218;28;21076;-66
2021/06/01 11:02:14;;;;;;;1.73;1.63;;;;;;;;;;5082221;22;21442;-63
2021/06/01 11:04:59;;;;;;;1.90;1.30;;;;;;;;;;5111858;28;20402;-63
2021/06/01 11:07:40;;;;;;;1.30;1.20;;;;;;;;;;5111421;28;20957;-63
2021/06/01 11:10:06;;;;;;;2.17;1.20;;;;;;;;;;5111699;28;20402;-62
2021/06/01 11:12:39;;;;;;;1.57;1.47;;;;;;;;;;5111743;28;21038;-65
2021/06/01 11:15:22;;;;;;;1.60;1.37;;;;;;;;;;5111724;28;20402;-65
2021/06/01 11:17:49;;;;;;;2.50;1.87;;;;;;;;;;5111462;28;20925;-62
2021/06/01 11:20:20;;;;;;;1.77;1.67;;;;;;;;;;5110096;28;20475;-62
2021/06/01 11:22:55;;;;;;;2.13;1.73;;;;;;;;;;5111510;28;20456;-62
2021/06/01 11:33:27;;;;;;;1.70;1.40;;;;;;;;;;5111449;28;20417;-63
2021/06/01 11:36:01;;;;;;;1.57;1.20;;;;;;;;;;5111611;28;20390;-63
2021/06/01 11:38:33;;;;;;;2.47;1.80;;;;;;;;;;5085489;28;20425;-62
2021/06/01 11:43:45;;;;;;;1.33;1.23;;;;;;;;;;5089008;28;20554;-63
2021/06/01 11:46:24;;;;;;;2.17;1.50;;;;;;;;;;5073673;28;20431;-63
2021/06/01 11:51:23;;;;;;;1.57;1.30;;;;;;;;;;5079829;28;20468;-63
2021/06/01 11:53:52;;;;;;;1.10;1.00;;;;;;;;;;5082233;28;20542;-63
2021/06/01 11:56:41;;;;;;;1.67;1.47;;;;;;;;;;5089345;28;20395;-63
2021/06/01 12:18:01;;;;;;;1.40;1.30;;;;;;;;;;5093419;28;20412;-63
2021/06/01 12:20:27;;;;;;;1.10;1.10;;;;;;;;;;5087131;28;20412;-63
2021/06/01 12:22:54;;;;;;;2.00;1.47;;;;;;;;;;5094571;28;20821;-63
2021/06/01 12:25:20;;;;;;;1.70;1.60;;;;;;;;;;5088870;28;20441;-63
2021/06/01 12:28:09;;;;;;;1.60;1.50;;;;;;;;;;5091046;28;20389;-63
2021/06/01 12:30:59;;;;;;;1.67;1.57;;;;;;;;;;5077203;28;20410;-63
2021/06/01 12:33:25;;;;;;;1.90;1.50;;;;;;;;;;5082845;28;20428;-63
2021/06/01 12:41:59;;;;;;;3.37;1.60;;;;;;;;;;5091816;28;20430;-63
2021/06/01 12:44:37;;;;;;;2.40;1.60;;;;;;;;;;5074184;28;20380;-63
2021/06/01 13:14:16;;;;;;;2.00;1.53;;;;;;;;;;5074518;28;20441;-63
2021/06/01 13:22:42;;;;;;;2.73;1.60;;;;;;;;;;5074032;28;20793;-63
2021/06/01 13:36:29;;;;;;;2.63;1.57;;;;;;;;;;5086806;28;20408;-63
2021/06/01 13:46:53;;;;;;;1.50;1.40;;;;;;;;;;5073046;28;20415;-63
2021/06/01 13:49:30;;;;;;;1.60;1.50;;;;;;;;;;5073714;28;20480;-63
2021/06/01 13:52:13;;;;;;;1.53;1.40;;;;;;;;;;5072560;28;20488;-63
2021/06/01 13:59:56;;;;;;;1.73;1.33;;;;;;;;;;5076456;28;20432;-63
2021/06/01 14:11:21;;;;;;;0.40;0.20;;;;;;;;;;5055469;28;20877;-63
2021/06/01 14:19:50;;;;;;;1.90;0.57;;;;;;;;;;5073265;28;20424;-63
2021/06/01 14:27:56;;;;;;;17.07;15.67;;;;;;;;;;5071599;28;20498;-63
2021/06/01 15:28:40;;;;;;;12.67;11.90;;;;;;;;;;5071324;28;20878;-64
2021/06/01 15:49:33;;;;;;;1.10;0.20;;;;;;;;;;5095080;28;20458;-64
2021/06/01 16:21:23;;;;;;;0.20;0.20;;;;;;;;;;5094609;28;20392;-64
2021/06/01 16:30:27;;;;;;;6.23;1.40;;;;;;;;;;5086734;28;20448;-63
2021/06/01 16:44:16;;;;;;;5.70;1.50;;;;;;;;;;5078536;28;20419;-61
2021/06/01 17:11:03;;;;;;;5.07;1.90;;;;;;;;;;5091019;28;20525;-63
2021/06/01 17:13:30;;;;;;;6.17;2.83;;;;;;;;;;5088709;28;20478;-63
2021/06/01 17:15:57;;;;;;;10.10;9.23;;;;;;;;;;5092557;28;20507;-62
2021/06/01 17:23:36;;;;;;;5.60;1.50;;;;;;;;;;5105743;28;20896;-62
2021/06/01 17:34:47;;;;;;;3.47;1.47;;;;;;;;;;5097618;28;20412;-62
2021/06/01 17:37:13;;;;;;;3.30;1.30;;;;;;;;;;5098763;28;20379;-63
2021/06/01 17:39:39;;;;;;;2.23;1.40;;;;;;;;;;5107793;28;20407;-64
2021/06/01 17:42:06;;;;;;;3.17;1.73;;;;;;;;;;5096796;28;20378;-62
2021/06/01 17:44:32;;;;;;;2.30;1.23;;;;;;;;;;5095681;28;20447;-63
2021/06/01 17:46:59;;;;;;;1.80;1.70;;;;;;;;;;5072736;28;20406;-63
2021/06/01 17:49:27;;;;;;;2.10;1.40;;;;;;;;;;5072719;28;20380;-63
2021/06/01 17:51:54;;;;;;;1.57;1.30;;;;;;;;;;5072472;28;20555;-62
2021/06/01 17:54:28;;;;;;;1.57;1.40;;;;;;;;;;5072577;28;20499;-63
2021/06/01 17:56:54;;;;;;;3.13;2.00;;;;;;;;;;5071435;28;20401;-62
2021/06/01 17:59:21;;;;;;;1.93;1.73;;;;;;;;;;5072338;28;20410;-65
2021/06/01 18:01:47;;;;;;;1.60;1.27;;;;;;;;;;5072356;28;20423;-64
2021/06/01 18:04:17;;;;;;;1.53;1.43;;;;;;;;;;5072370;28;20960;-64
2021/06/01 18:06:49;;;;;;;1.43;1.33;;;;;;;;;;5072359;28;20388;-64
2021/06/01 19:28:33;;;;;;;2.30;2.10;;;;;;;;;;5087344;28;20459;-64
2021/06/01 19:50:16;;;;;;;1.70;1.60;;;;;;;;;;5091158;28;20788;-64
2021/06/01 19:52:44;;;;;;;2.40;1.97;;;;;;;;;;5090765;28;20889;-64
2021/06/01 19:55:10;;;;;;;1.93;1.83;;;;;;;;;;5090594;28;20795;-64
2021/06/01 19:57:36;;;;;;;1.40;1.33;;;;;;;;;;5090708;28;20397;-64
2021/06/01 20:00:03;;;;;;;2.00;1.57;;;;;;;;;;5090898;28;20408;-64
2021/06/01 20:02:31;;;;;;;1.30;1.27;;;;;;;;;;5090850;28;20539;-63
2021/06/01 20:05:00;;;;;;;1.20;1.20;;;;;;;;;;5091060;28;20406;-64
2021/06/01 20:07:28;;;;;;;1.43;1.23;;;;;;;;;;5091087;28;20931;-64
2021/06/01 20:09:54;;;;;;;15.13;2.03;;;;;;;;;;5090607;28;20876;-64
2021/06/01 20:12:21;;;;;;;2.30;2.07;;;;;;;;;;5090809;28;20544;-64
2021/06/01 20:14:47;;;;;;;2.63;2.20;;;;;;;;;;5091287;28;20436;-64
2021/06/01 20:17:19;;;;;;;1.83;1.50;;;;;;;;;;5090897;28;20522;-64
2021/06/01 20:19:46;;;;;;;2.07;1.97;;;;;;;;;;5072994;28;20473;-64
2021/06/01 20:22:13;;;;;;;1.63;1.53;;;;;;;;;;5094632;28;20432;-64
2021/06/01 20:24:40;;;;;;;2.00;1.50;;;;;;;;;;5094444;28;21401;-64
2021/06/01 20:27:09;;;;;;;2.20;2.00;;;;;;;;;;5094686;28;20386;-64
2021/06/01 20:29:37;;;;;;;2.33;2.13;;;;;;;;;;5094345;28;20438;-64
2021/06/01 20:34:49;;;;;;;2.27;1.70;;;;;;;;;;5094770;28;20473;-64
2021/06/01 20:37:15;;;;;;;1.73;1.63;;;;;;;;;;5094311;28;20405;-64
2021/06/01 20:39:42;;;;;;;1.67;1.53;;;;;;;;;;5094176;28;20867;-64
2021/06/01 20:42:08;;;;;;;1.90;1.80;;;;;;;;;;5094230;28;20420;-63
2021/06/01 20:44:35;;;;;;;1.63;1.52;;;;;;;;;;5094270;28;20775;-63
2021/06/01 20:47:01;;;;;;;1.83;1.50;;;;;;;;;;5094087;28;20656;-64
2021/06/01 20:49:28;;;;;;;4.43;3.13;;;;;;;;;;5093806;28;20400;-64
2021/06/01 20:51:54;;;;;;;1.77;1.67;;;;;;;;;;5093960;28;20448;-64
2021/06/01 20:54:20;;;;;;;2.60;1.30;;;;;;;;;;5093954;28;20170;-64
2021/06/01 20:56:47;;;;;;;1.67;1.37;;;;;;;;;;5093717;28;20486;-64
2021/06/01 20:59:14;;;;;;;1.30;1.20;;;;;;;;;;5093815;28;20976;-64
2021/06/01 21:01:41;;;;;;;2.13;1.60;;;;;;;;;;5093932;28;20205;-64
2021/06/01 21:04:07;;;;;;;1.33;1.23;;;;;;;;;;5093727;28;20500;-64
2021/06/01 21:06:33;;;;;;;1.47;1.37;;;;;;;;;;5091929;28;20427;-64
2021/06/01 21:09:00;;;;;;;3.13;1.60;;;;;;;;;;5082086;28;20416;-64
2021/06/01 21:11:26;;;;;;;1.43;1.20;;;;;;;;;;5093666;28;20452;-64
2021/06/01 21:13:52;;;;;;;1.03;0.93;;;;;;;;;;5088797;28;20489;-64
2021/06/01 21:16:18;;;;;;;1.50;1.40;;;;;;;;;;5082126;28;20445;-63
2021/06/01 21:18:44;;;;;;;2.33;2.00;;;;;;;;;;5077141;28;20167;-64
2021/06/01 21:21:11;;;;;;;1.60;1.37;;;;;;;;;;5085426;28;20465;-63
2021/06/01 21:23:37;;;;;;;1.90;1.40;;;;;;;;;;5093083;28;20420;-64
2021/06/01 21:26:03;;;;;;;3.90;1.40;;;;;;;;;;5090946;28;20425;-63
2021/06/01 21:28:31;;;;;;;1.27;1.25;;;;;;;;;;5092161;28;20412;-63
2021/06/01 21:30:57;;;;;;;1.40;1.10;;;;;;;;;;5090088;28;20167;-63
2021/06/01 21:33:27;;;;;;;1.17;1.08;;;;;;;;;;5090986;28;20935;-64
2021/06/01 21:35:53;;;;;;;1.73;1.57;;;;;;;;;;5092130;28;20189;-63
2021/06/01 21:38:25;;;;;;;2.30;1.10;;;;;;;;;;5091349;28;20409;-64
2021/06/01 21:40:51;;;;;;;1.67;1.55;;;;;;;;;;5068385;28;20174;-63
2021/06/01 21:43:19;;;;;;;1.60;1.50;;;;;;;;;;5090734;28;20248;-63
2021/06/01 21:45:45;;;;;;;2.60;1.13;;;;;;;;;;5090673;28;20450;-63
2021/06/01 21:48:12;;;;;;;1.67;1.57;;;;;;;;;;5092290;28;20401;-63
2021/06/01 21:50:46;;;;;;;2.00;1.83;;;;;;;;;;5089695;28;20383;-63
2021/06/01 21:53:14;;;;;;;1.47;1.37;;;;;;;;;;5090900;28;20475;-63
2021/06/01 21:55:41;;;;;;;2.80;2.10;;;;;;;;;;5089380;28;20978;-64
2021/06/01 21:58:08;;;;;;;1.70;1.17;;;;;;;;;;5092311;28;20398;-63
2021/06/01 22:00:34;;;;;;;2.73;1.50;;;;;;;;;;5091175;28;20427;-63
2021/06/01 22:03:00;;;;;;;1.63;1.40;;;;;;;;;;5092110;28;20448;-63
2021/06/01 22:05:27;;;;;;;2.03;1.27;;;;;;;;;;5087660;28;20417;-63
2021/06/01 22:07:54;;;;;;;1.53;1.43;;;;;;;;;;5091109;28;20542;-64
2021/06/01 22:10:24;;;;;;;3.30;1.50;;;;;;;;;;5088654;28;20458;-64
2021/06/01 22:12:51;;;;;;;1.83;1.73;;;;;;;;;;5091354;28;20549;-63
2021/06/01 22:15:36;;;;;;;3.83;1.50;;;;;;;;;;5091980;28;20167;-63
2021/06/01 22:18:05;;;;;;;1.70;1.50;;;;;;;;;;5089294;28;20397;-64